createdAt,value
2018-08-11T00:02:14.276Z,15.77
2018-08-11T00:04:41.331Z,15.73
2018-08-11T00:07:08.379Z,13.75
2018-08-11T00:09:35.397Z,14.93
2018-08-11T00:12:02.471Z,16.20
2018-08-11T00:14:29.526Z,15.52
2018-08-11T00:16:56.569Z,14.95
2018-08-11T00:19:23.620Z,16.67
2018-08-11T00:21:50.671Z,15.82
2018-08-11T00:24:17.715Z,16.55
2018-08-11T00:26:44.763Z,16.05
2018-08-11T00:29:11.779Z,16.98
2018-08-11T00:31:38.860Z,17.08
2018-08-11T00:34:24.848Z,17.12
2018-08-11T00:37:10.951Z,16.73
2018-08-11T00:39:37.998Z,16.35
2018-08-11T00:42:06.280Z,17.27
2018-08-11T00:44:33.323Z,16.75
2018-08-11T00:47:00.374Z,17.02
2018-08-11T00:49:28.477Z,17.27
2018-08-11T00:51:58.135Z,16.27
2018-08-11T00:54:25.204Z,17.27
2018-08-11T00:56:52.259Z,16.42
2018-08-11T00:59:19.301Z,18.00
2018-08-11T01:01:46.351Z,16.58
2018-08-11T01:04:14.633Z,18.05
2018-08-11T01:06:41.784Z,17.95
2018-08-11T01:09:08.827Z,16.92
2018-08-11T01:11:35.876Z,16.62
2018-08-11T01:14:02.929Z,16.35
2018-08-11T01:16:29.974Z,16.70
2018-08-11T01:18:57.022Z,16.73
2018-08-11T01:21:24.076Z,16.77
2018-08-11T01:23:51.123Z,17.48
2018-08-11T01:26:18.170Z,16.12
2018-08-11T01:28:45.627Z,16.42
2018-08-11T01:31:12.683Z,16.75
2018-08-11T01:33:39.723Z,16.35
2018-08-11T01:36:06.873Z,16.37
2018-08-11T01:38:34.844Z,16.58
2018-08-11T01:41:02.713Z,15.95
2018-08-11T01:43:29.761Z,16.95
2018-08-11T01:45:56.815Z,16.33
2018-08-11T01:48:23.965Z,14.90
2018-08-11T01:50:51.009Z,15.18
2018-08-11T01:53:18.057Z,15.05
2018-08-11T01:55:45.112Z,15.73
2018-08-11T01:58:12.159Z,16.75
2018-08-11T02:00:39.308Z,16.40
2018-08-11T02:03:06.355Z,16.30
2018-08-11T02:05:33.409Z,15.73
2018-08-11T02:08:00.453Z,15.02
2018-08-11T02:10:27.603Z,15.18
2018-08-11T02:12:55.785Z,15.35
2018-08-11T02:15:22.798Z,14.55
2018-08-11T02:17:49.877Z,15.85
2018-08-11T02:20:18.566Z,15.93
2018-08-11T02:22:45.618Z,15.38
2018-08-11T02:25:12.661Z,15.98
2018-08-11T02:27:39.812Z,16.17
2018-08-11T02:30:06.827Z,16.05
2018-08-11T02:32:33.913Z,15.38
2018-08-11T02:35:00.957Z,15.07
2018-08-11T02:37:28.004Z,15.70
2018-08-11T02:39:55.771Z,14.98
2018-08-11T02:42:22.825Z,15.70
2018-08-11T02:44:49.870Z,15.35
2018-08-11T02:47:16.917Z,14.63
2018-08-11T02:49:43.970Z,14.77
2018-08-11T02:52:12.043Z,14.30
2018-08-11T02:54:39.154Z,14.18
2018-08-11T02:57:07.363Z,14.70
2018-08-11T02:59:34.419Z,13.73
2018-08-11T03:02:01.570Z,13.25
2018-08-11T03:04:28.621Z,13.18
2018-08-11T03:06:57.469Z,12.88
2018-08-11T03:09:24.562Z,13.82
2018-08-11T03:11:51.627Z,13.55
2018-08-11T03:14:18.751Z,13.45
2018-08-11T03:16:45.801Z,13.43
2018-08-11T03:19:12.855Z,13.77
2018-08-11T03:21:39.899Z,14.43
2018-08-11T03:24:06.947Z,13.30
2018-08-11T03:26:34.001Z,13.25
2018-08-11T03:29:01.044Z,13.70
2018-08-11T03:31:28.990Z,13.25
2018-08-11T03:33:56.269Z,13.60
2018-08-11T03:36:23.316Z,14.40
2018-08-11T03:41:48.318Z,13.52
2018-08-11T03:44:15.393Z,13.77
2018-08-11T03:46:42.435Z,12.98
2018-08-11T03:49:09.483Z,13.93
2018-08-11T03:51:36.737Z,12.95
2018-08-11T03:54:03.789Z,13.75
2018-08-11T03:56:31.454Z,13.75
2018-08-11T03:58:58.501Z,13.80
2018-08-11T04:01:25.546Z,13.65
2018-08-11T04:03:53.312Z,14.18
2018-08-11T04:06:20.366Z,13.07
2018-08-11T04:08:47.410Z,13.65
2018-08-11T04:11:15.072Z,13.85
2018-08-11T04:13:42.127Z,12.75
2018-08-11T04:16:09.175Z,13.93
2018-08-11T04:18:36.938Z,13.77
2018-08-11T04:21:05.011Z,13.75
2018-08-11T04:23:32.884Z,13.20
2018-08-11T04:25:59.897Z,13.43
2018-08-11T04:28:26.981Z,13.62
2018-08-11T04:30:54.032Z,13.57
2018-08-11T04:33:21.889Z,14.38
2018-08-11T04:35:48.947Z,13.35
2018-08-11T04:38:15.986Z,13.73
2018-08-11T04:40:43.348Z,13.43
2018-08-11T04:43:10.396Z,14.82
2018-08-11T04:45:38.738Z,13.35
2018-08-11T04:48:05.821Z,13.93
2018-08-11T04:50:32.867Z,14.02
2018-08-11T04:52:59.920Z,14.45
2018-08-11T04:55:26.964Z,13.10
2018-08-11T04:57:53.982Z,14.07
2018-08-11T05:00:21.067Z,14.75
2018-08-11T05:02:48.112Z,14.18
2018-08-11T05:05:15.160Z,14.82
2018-08-11T05:07:42.215Z,13.75
2018-08-11T05:10:09.258Z,14.63
2018-08-11T05:12:36.305Z,14.68
2018-08-11T05:15:03.563Z,13.48
2018-08-11T05:17:30.608Z,14.65
2018-08-11T05:19:57.765Z,14.90
2018-08-11T05:22:24.820Z,14.00
2018-08-11T05:24:51.927Z,13.52
2018-08-11T05:27:19.008Z,14.38
2018-08-11T05:29:46.056Z,14.25
2018-08-11T05:32:13.216Z,14.93
2018-08-11T05:34:40.262Z,14.30
2018-08-11T05:37:07.304Z,14.18
2018-08-11T05:39:34.354Z,14.70
2018-08-11T05:42:01.406Z,15.73
2018-08-11T05:44:28.450Z,15.43
2018-08-11T05:50:11.400Z,16.35
2018-08-11T05:52:38.953Z,15.07
2018-08-11T05:55:06.118Z,14.43
2018-08-11T05:57:35.703Z,14.75
2018-08-11T06:00:03.381Z,15.45
2018-08-11T06:02:30.425Z,14.75
2018-08-11T06:04:57.473Z,15.25
2018-08-11T06:07:24.727Z,13.38
2018-08-11T06:09:51.743Z,14.15
2018-08-11T06:12:18.829Z,14.00
2018-08-11T06:14:46.077Z,13.40
2018-08-11T06:17:13.130Z,14.90
2018-08-11T06:19:40.282Z,13.05
2018-08-11T06:22:07.531Z,13.50
2018-08-11T06:24:38.836Z,14.13
2018-08-11T06:27:22.632Z,15.30
2018-08-11T06:30:07.194Z,14.93
2018-08-11T06:32:50.784Z,14.63
2018-08-11T06:35:36.725Z,15.38
2018-08-11T06:38:04.074Z,14.20
2018-08-11T06:40:31.163Z,15.63
2018-08-11T06:42:59.052Z,14.52
2018-08-11T06:45:26.137Z,14.93
2018-08-11T06:47:53.287Z,14.52
2018-08-11T06:50:20.329Z,14.02
2018-08-11T06:52:47.384Z,14.18
2018-08-11T06:55:14.432Z,14.68
2018-08-11T06:57:42.296Z,14.82
2018-08-11T07:00:10.750Z,15.85
2018-08-11T07:02:37.826Z,15.40
2018-08-11T07:05:04.880Z,15.10
2018-08-11T07:07:31.894Z,15.65
2018-08-11T07:09:58.973Z,15.05
2018-08-11T07:12:26.229Z,15.43
2018-08-11T07:14:53.277Z,15.63
2018-08-11T07:17:20.330Z,15.73
2018-08-11T07:19:47.376Z,14.73
2018-08-11T07:22:14.427Z,14.80
2018-08-11T07:24:42.594Z,16.12
2018-08-11T07:27:09.746Z,15.65
2018-08-11T07:29:36.793Z,15.30
2018-08-11T07:32:04.254Z,15.73
2018-08-11T07:34:31.307Z,14.45
2018-08-11T07:36:59.072Z,14.87
2018-08-11T07:39:26.628Z,15.00
2018-08-11T07:41:53.741Z,15.35
2018-08-11T07:44:20.833Z,15.27
2018-08-11T07:46:50.271Z,14.73
2018-08-11T07:49:18.100Z,15.05
2018-08-11T07:51:45.150Z,15.18
2018-08-11T07:54:12.722Z,14.77
2018-08-11T07:56:39.756Z,13.65
2018-08-11T07:59:06.812Z,13.70
2018-08-11T08:01:34.533Z,14.40
2018-08-11T08:04:01.619Z,13.35
2018-08-11T08:06:28.668Z,14.00
2018-08-11T08:08:56.844Z,14.30
2018-08-11T08:11:23.892Z,13.98
2018-08-11T08:13:52.175Z,14.50
2018-08-11T08:16:19.526Z,13.48
2018-08-11T08:18:46.785Z,13.62
2018-08-11T08:21:14.031Z,13.10
2018-08-11T08:23:41.182Z,14.07
2018-08-11T08:26:08.303Z,13.80
2018-08-11T08:28:35.387Z,13.93
2018-08-11T08:31:02.431Z,12.65
2018-08-11T08:33:30.013Z,13.85
2018-08-11T08:36:00.250Z,13.50
2018-08-11T08:38:27.708Z,13.55
2018-08-11T08:40:54.832Z,12.75
2018-08-11T08:43:24.014Z,13.05
2018-08-11T08:45:52.283Z,12.57
2018-08-11T08:48:19.354Z,12.60
2018-08-11T08:50:46.813Z,13.27
2018-08-11T08:53:13.863Z,12.50
2018-08-11T08:55:40.905Z,13.68
2018-08-11T08:58:07.959Z,13.95
2018-08-11T09:00:35.004Z,12.93
2018-08-11T09:03:02.051Z,12.95
2018-08-11T09:05:32.801Z,12.20
2018-08-11T09:07:59.835Z,12.52
2018-08-11T09:10:26.985Z,12.27
2018-08-11T09:12:54.034Z,12.23
2018-08-11T09:15:21.088Z,11.60
2018-08-11T09:17:48.130Z,10.95
2018-08-11T09:20:15.179Z,11.07
2018-08-11T09:22:42.233Z,11.02
2018-08-11T09:25:09.279Z,12.02
2018-08-11T09:27:36.325Z,10.57
2018-08-11T09:30:03.380Z,11.18
2018-08-11T09:32:30.421Z,10.98
2018-08-11T09:34:57.470Z,10.45
2018-08-11T09:37:25.300Z,11.12
2018-08-11T09:39:52.292Z,10.75
2018-08-11T09:42:19.334Z,10.43
2018-08-11T09:44:46.592Z,10.25
2018-08-11T09:47:13.635Z,10.48
2018-08-11T09:49:40.683Z,10.05
2018-08-11T09:52:08.665Z,9.82
2018-08-11T09:54:37.348Z,9.48
2018-08-11T09:57:04.496Z,10.07
2018-08-11T09:59:31.847Z,9.48
2018-08-11T10:01:59.022Z,9.65
2018-08-11T10:04:27.891Z,9.63
2018-08-11T10:06:54.946Z,10.00
2018-08-11T10:09:23.223Z,9.55
2018-08-11T10:11:50.478Z,9.82
2018-08-11T10:14:18.241Z,9.18
2018-08-11T10:16:45.509Z,9.23
2018-08-11T10:19:12.543Z,9.38
2018-08-11T10:21:43.168Z,9.70
2018-08-11T10:24:10.932Z,9.27
2018-08-11T10:26:37.992Z,8.55
2018-08-11T10:29:06.059Z,9.38
2018-08-11T10:31:38.328Z,8.93
2018-08-11T10:34:05.374Z,8.18
2018-08-11T10:36:32.429Z,8.30
2018-08-11T10:38:59.473Z,8.68
2018-08-11T10:41:26.520Z,8.32
2018-08-11T10:43:53.574Z,8.25
2018-08-11T10:46:20.618Z,8.15
2018-08-11T10:48:48.575Z,8.32
2018-08-11T10:51:15.640Z,8.50
2018-08-11T10:53:42.686Z,8.05
2018-08-11T10:56:09.735Z,8.57
2018-08-11T10:58:37.806Z,8.02
2018-08-11T11:01:04.859Z,7.82
2018-08-11T11:03:31.902Z,7.80
2018-08-11T11:05:59.359Z,7.43
2018-08-11T11:08:26.506Z,7.45
2018-08-11T11:10:53.559Z,8.00
2018-08-11T11:13:22.660Z,7.25
2018-08-11T11:15:49.806Z,7.60
2018-08-11T11:18:16.866Z,6.87
2018-08-11T11:20:45.592Z,8.05
2018-08-11T11:23:12.691Z,8.70
2018-08-11T11:25:39.746Z,7.87
2018-08-11T11:28:07.818Z,8.10
2018-08-11T11:30:34.863Z,8.02
2018-08-11T11:33:01.910Z,7.40
2018-08-11T11:35:31.113Z,8.10
2018-08-11T11:37:58.157Z,7.32
2018-08-11T11:40:25.819Z,8.00
2018-08-11T11:42:52.873Z,7.53
2018-08-11T11:45:20.640Z,8.85
2018-08-11T11:47:47.886Z,9.18
2018-08-11T11:50:14.942Z,8.88
2018-08-11T11:52:42.000Z,7.97
2018-08-11T11:55:09.549Z,8.75
2018-08-11T11:57:37.185Z,8.02
2018-08-11T12:00:04.483Z,8.82
2018-08-11T12:02:31.616Z,8.90
2018-08-11T12:04:58.660Z,9.10
2018-08-11T12:07:25.709Z,8.02
2018-08-11T12:09:52.760Z,8.07
2018-08-11T12:12:19.805Z,8.73
2018-08-11T12:14:47.733Z,8.40
2018-08-11T12:17:14.926Z,8.82
2018-08-11T12:19:42.077Z,8.63
2018-08-11T12:22:09.129Z,7.93
2018-08-11T12:24:36.280Z,7.82
2018-08-11T12:27:03.432Z,8.32
2018-08-11T12:29:31.089Z,7.75
2018-08-11T12:31:58.238Z,7.72
2018-08-11T12:34:26.214Z,7.80
2018-08-11T12:37:03.976Z,7.45
2018-08-11T12:39:31.059Z,7.68
2018-08-11T12:41:58.107Z,7.37
2018-08-11T12:44:25.359Z,7.15
2018-08-11T12:46:52.510Z,7.15
2018-08-11T12:49:20.297Z,7.47
2018-08-11T12:51:51.558Z,6.85
2018-08-11T12:54:20.152Z,6.85
2018-08-11T12:56:47.672Z,6.80
2018-08-11T12:59:14.717Z,6.45
2018-08-11T13:01:41.869Z,6.37
2018-08-11T13:04:10.246Z,6.20
2018-08-11T13:06:37.700Z,6.57
2018-08-11T13:09:04.924Z,6.93
2018-08-11T13:11:32.008Z,6.55
2018-08-11T13:13:59.140Z,6.32
2018-08-11T13:16:26.205Z,6.62
2018-08-11T13:18:53.662Z,6.00
2018-08-11T13:21:22.758Z,5.80
2018-08-11T13:23:49.774Z,6.53
2018-08-11T13:26:18.458Z,5.90
2018-08-11T13:28:45.643Z,6.40
2018-08-11T13:31:12.697Z,6.40
2018-08-11T13:33:39.847Z,6.55
2018-08-11T13:36:06.890Z,6.30
2018-08-11T13:38:33.961Z,6.60
2018-08-11T13:41:01.808Z,6.30
2018-08-11T13:43:28.855Z,6.45
2018-08-11T13:45:55.909Z,6.47
2018-08-11T13:48:22.953Z,6.47
2018-08-11T13:50:50.213Z,6.57
2018-08-11T13:53:19.945Z,6.53
2018-08-11T13:55:46.969Z,7.10
2018-08-11T13:58:14.012Z,7.22
2018-08-11T14:00:41.367Z,6.95
2018-08-11T14:03:10.285Z,7.70
2018-08-11T14:05:39.565Z,7.15
2018-08-11T14:08:06.609Z,7.12
2018-08-11T14:10:38.488Z,7.40
2018-08-11T14:13:05.520Z,7.40
2018-08-11T14:15:32.566Z,7.45
2018-08-11T14:17:59.619Z,7.60
2018-08-11T14:20:26.704Z,7.65
2018-08-11T14:22:53.715Z,7.20
2018-08-11T14:25:23.785Z,7.45
2018-08-11T14:27:50.879Z,7.60
2018-08-11T14:30:19.639Z,8.10
2018-08-11T14:32:47.438Z,7.87
2018-08-11T14:35:14.594Z,7.45
2018-08-11T14:37:43.050Z,6.95
2018-08-11T14:40:12.087Z,7.80
2018-08-11T14:45:28.706Z,6.97
2018-08-11T14:47:56.393Z,7.12
2018-08-11T14:50:23.617Z,7.30
2018-08-11T14:52:51.163Z,6.80
2018-08-11T14:55:18.833Z,7.85
2018-08-11T14:57:46.194Z,7.32
2018-08-11T15:00:13.333Z,7.03
2018-08-11T15:02:40.483Z,7.50
2018-08-11T15:05:07.531Z,7.07
2018-08-11T15:07:36.795Z,7.35
2018-08-11T15:10:08.893Z,7.47
2018-08-11T15:12:39.831Z,7.47
2018-08-11T15:15:12.390Z,7.40
2018-08-11T15:17:46.035Z,7.18
2018-08-11T15:20:15.215Z,7.03
2018-08-11T15:22:48.389Z,7.28
2018-08-11T15:25:26.314Z,7.53
2018-08-11T15:28:03.815Z,7.80
2018-08-11T15:30:41.368Z,7.32
2018-08-11T15:33:16.017Z,7.37
2018-08-11T15:35:47.592Z,7.75
2018-08-11T15:38:31.710Z,7.93
2018-08-11T15:41:02.386Z,7.62
2018-08-11T15:43:42.817Z,8.15
2018-08-11T15:46:21.292Z,7.93
2018-08-11T15:48:58.445Z,7.12
2018-08-11T15:51:34.725Z,7.93
2018-08-11T15:54:07.936Z,7.72
2018-08-11T15:56:41.253Z,8.00
2018-08-11T15:59:44.749Z,7.57
2018-08-11T16:05:02.381Z,5.43
2018-08-11T16:07:42.802Z,4.12
2018-08-11T16:10:31.194Z,4.10
2018-08-11T16:13:15.432Z,3.65
2018-08-11T16:24:50.653Z,3.80
2018-08-11T16:27:30.311Z,3.60
2018-08-11T16:30:11.022Z,3.87
2018-08-11T16:32:45.463Z,3.60
2018-08-11T16:35:26.174Z,3.92
2018-08-11T16:38:04.878Z,4.07
2018-08-11T16:40:47.271Z,4.10
2018-08-11T16:46:12.999Z,3.85
2018-08-11T16:48:40.532Z,4.00
2018-08-11T16:51:07.683Z,3.60
2018-08-11T16:53:35.039Z,3.78
2018-08-11T16:56:06.456Z,4.55
2018-08-11T16:58:34.870Z,3.97
2018-08-11T17:01:03.044Z,3.30
2018-08-11T17:03:31.207Z,4.00
2018-08-11T17:06:01.920Z,3.80
2018-08-11T17:08:29.520Z,4.12
2018-08-11T17:10:57.693Z,4.12
2018-08-11T17:13:24.842Z,4.10
2018-08-11T17:15:54.105Z,3.67
2018-08-11T17:18:21.199Z,3.70
2018-08-11T17:20:48.307Z,4.00
2018-08-11T17:23:15.254Z,4.62
2018-08-11T17:25:42.341Z,3.70
2018-08-11T17:28:09.385Z,4.90
2018-08-11T17:30:36.433Z,4.00
2018-08-11T17:33:04.915Z,4.68
2018-08-11T17:35:32.069Z,4.40
2018-08-11T17:38:02.290Z,4.20
2018-08-11T17:40:30.164Z,4.20
2018-08-11T17:43:10.943Z,3.87
2018-08-11T17:51:09.348Z,4.40
2018-08-11T17:53:37.112Z,4.30
2018-08-11T17:56:04.161Z,4.62
2018-08-11T17:58:31.216Z,4.35
2018-08-11T18:01:00.211Z,4.30
2018-08-11T18:03:27.256Z,4.53
2018-08-11T18:05:55.222Z,4.25
2018-08-11T18:08:22.276Z,4.43
2018-08-11T18:10:49.320Z,4.12
2018-08-11T18:13:17.699Z,3.92
2018-08-11T18:15:44.748Z,4.60
2018-08-11T18:18:11.802Z,4.40
2018-08-11T18:20:39.152Z,4.78
2018-08-11T18:23:06.200Z,4.25
2018-08-11T18:25:33.384Z,5.45
2018-08-11T18:28:00.506Z,4.90
2018-08-11T18:30:27.653Z,4.30
2018-08-11T18:32:54.708Z,5.07
2018-08-11T18:35:22.263Z,5.65
2018-08-11T18:37:49.316Z,5.37
2018-08-11T18:40:16.974Z,5.18
2018-08-11T18:42:44.023Z,4.97
2018-08-11T18:45:11.076Z,5.00
2018-08-11T18:47:38.228Z,4.80
2018-08-11T18:50:05.380Z,4.28
2018-08-11T18:52:32.400Z,4.75
2018-08-11T18:54:59.470Z,4.85
2018-08-11T18:57:26.525Z,4.03
2018-08-11T18:59:54.185Z,4.57
2018-08-11T19:02:21.442Z,4.47
2018-08-11T19:04:48.592Z,5.07
2018-08-11T19:07:15.634Z,4.50
2018-08-11T19:09:42.682Z,4.10
2018-08-11T19:12:12.430Z,4.72
2018-08-11T19:14:39.753Z,4.28
2018-08-11T19:17:07.418Z,4.90
2018-08-11T19:19:38.497Z,4.43
2018-08-11T19:22:12.673Z,4.20
2018-08-11T19:24:39.823Z,4.40
2018-08-11T19:27:06.976Z,4.50
2018-08-11T19:29:34.125Z,4.90
2018-08-11T19:32:02.305Z,4.78
2018-08-11T19:34:41.991Z,4.62
2018-08-11T19:37:17.883Z,4.87
2018-08-11T19:39:53.233Z,5.87
2018-08-11T19:42:28.558Z,4.90
2018-08-11T19:45:03.835Z,5.10
2018-08-11T19:47:38.383Z,5.20
2018-08-11T19:50:13.441Z,5.05
2018-08-11T19:52:48.681Z,4.93
2018-08-11T19:55:16.190Z,4.97
2018-08-11T19:57:43.443Z,5.30
2018-08-11T20:00:10.595Z,5.47
2018-08-11T20:02:37.642Z,5.18
2018-08-11T20:05:12.698Z,5.57
2018-08-11T20:07:40.143Z,5.87
2018-08-11T20:10:07.185Z,5.80
2018-08-11T20:12:34.257Z,5.65
2018-08-11T20:15:01.287Z,5.78
2018-08-11T20:17:28.334Z,5.57
2018-08-11T20:19:55.381Z,5.72
2018-08-11T20:22:22.434Z,5.72
2018-08-11T20:24:49.476Z,5.40
2018-08-11T20:27:16.525Z,5.12
2018-08-11T20:29:43.579Z,5.80
2018-08-11T20:32:10.731Z,5.70
2018-08-11T20:34:37.774Z,5.82
2018-08-11T20:37:06.872Z,5.85
2018-08-11T20:39:33.922Z,5.50
2018-08-11T20:42:00.967Z,5.70
2018-08-11T20:44:28.120Z,5.68
2018-08-11T20:46:55.270Z,5.82
2018-08-11T20:49:22.324Z,5.78
2018-08-11T20:51:49.367Z,5.47
2018-08-11T20:54:17.240Z,6.18
2018-08-11T20:56:44.284Z,6.00
2018-08-11T20:59:11.332Z,6.22
2018-08-11T21:01:38.410Z,5.85
2018-08-11T21:04:05.537Z,5.82
2018-08-11T21:06:32.581Z,5.97
2018-08-11T21:08:59.628Z,6.10
2018-08-11T21:11:26.631Z,5.65
2018-08-11T21:13:53.786Z,5.78
2018-08-11T21:16:21.040Z,5.57
2018-08-11T21:18:48.080Z,5.53
2018-08-11T21:21:15.132Z,5.35
2018-08-11T21:23:42.235Z,5.35
2018-08-11T21:26:09.223Z,5.93
2018-08-11T21:28:36.272Z,5.60
2018-08-11T21:31:04.652Z,5.53
2018-08-11T21:33:31.803Z,5.68
2018-08-11T21:35:59.055Z,5.68
2018-08-11T21:38:26.105Z,5.53
2018-08-11T21:40:53.160Z,5.75
2018-08-11T21:43:20.202Z,5.12
2018-08-11T21:45:47.250Z,5.47
2018-08-11T21:48:14.402Z,5.10
2018-08-11T21:50:41.456Z,5.50
2018-08-11T21:53:08.499Z,5.15
2018-08-11T21:55:35.548Z,5.28
2018-08-11T21:58:03.313Z,5.35
2018-08-11T22:00:36.020Z,5.90
2018-08-11T22:03:03.246Z,5.50
2018-08-11T22:05:30.295Z,5.72
2018-08-11T22:07:57.352Z,5.62
2018-08-11T22:10:24.397Z,5.20
2018-08-11T22:12:51.749Z,5.22
2018-08-11T22:15:18.805Z,5.03
2018-08-11T22:17:45.846Z,5.10
2018-08-11T22:20:12.868Z,5.35
2018-08-11T22:22:39.948Z,5.05
2018-08-11T22:25:07.196Z,5.50
2018-08-11T22:27:34.250Z,5.97
2018-08-11T22:30:01.293Z,5.18
2018-08-11T22:32:28.342Z,5.32
2018-08-11T22:34:55.395Z,5.32
2018-08-11T22:37:22.439Z,5.80
2018-08-11T22:39:49.489Z,5.03
2018-08-11T22:42:18.386Z,5.40
2018-08-11T22:44:46.967Z,5.53
2018-08-11T22:47:15.415Z,5.68
2018-08-11T22:49:42.393Z,5.68
2018-08-11T22:52:09.453Z,5.95
2018-08-11T22:54:36.695Z,5.75
2018-08-11T22:57:03.749Z,6.10
2018-08-11T22:59:30.799Z,6.05
2018-08-11T23:01:57.841Z,5.60
2018-08-11T23:04:24.895Z,5.75
2018-08-11T23:06:51.938Z,6.07
2018-08-11T23:09:18.988Z,5.78
2018-08-11T23:11:46.041Z,6.00
2018-08-11T23:14:13.052Z,5.80
2018-08-11T23:16:40.134Z,5.70
2018-08-11T23:19:07.187Z,5.85
2018-08-11T23:21:34.231Z,6.30
2018-08-11T23:24:01.281Z,5.95
2018-08-11T23:26:28.642Z,6.15
2018-08-11T23:28:55.661Z,5.35
2018-08-11T23:31:22.732Z,5.82
2018-08-11T23:33:50.463Z,5.60
2018-08-11T23:36:17.551Z,5.50
2018-08-11T23:38:44.596Z,5.70
2018-08-11T23:41:12.262Z,5.97
2018-08-11T23:43:39.925Z,5.72
2018-08-11T23:46:06.969Z,5.97
2018-08-11T23:48:34.017Z,5.65
2018-08-11T23:51:01.107Z,6.00
2018-08-11T23:53:28.115Z,5.60
2018-08-11T23:55:55.168Z,6.35
2018-08-11T23:58:22.237Z,5.90
